METAR stanice u blizini

 

LYBE - Beograd / Surčin, Srbija
Ažurirano: 26/09/2022 02:30
Vedro
Vedro
 Pravac vetra JJI
Vetar: JJI 17 km/h
Temperatura: 18°C
Tačka rose: 11°C
Vlažnost: 64%
Pritisak: 1011 hPa
Pregled: Vedro
Vidljivost: greater than 10 km
2022/09/26 00:30 LYBE 260030Z 16009KT CAVOK 18/11 Q1011 NOSIG
LYBT - Beograd / Batajnica, Srbija
Ažurirano: 26/09/2022 02:30
Vedro
Vedro
 Pravac vetra JI
Vetar: JI 11 km/h
Temperatura: 16°C
Tačka rose: 13°C
Vlažnost: 83%
Pritisak: 1011 hPa
Pregled: Vedro
Vidljivost: greater than 10 km
2022/09/26 00:30 LYBT 260030Z 13006KT CAVOK 16/13 Q1011 NOSIG
LYVR - Vršac, Srbija
Ažurirano: 26/09/2022 02:30
Vedro
Vedro
 Pravac vetra JJI
Vetar: JJI 30 km/h
Temperatura: 18°C
Tačka rose: 10°C
Vlažnost: 60%
Pritisak: 1011 hPa
Pregled: Vedro
Vidljivost: greater than 10 km
2022/09/26 00:30 LYVR 260030Z AUTO 15016KT CAVOK 18/10 Q1011
 
LYKV - Lađevci, Srbija
Ažurirano: 26/09/2022 02:30
Slaba kiša, Delimično oblačno
Slaba kiša, Delimično oblačno
 Pravac vetra varies
Vetar: varies 4 km/h
Temperatura: 15°C
Tačka rose: 15°C
Vlažnost: 100%
Pritisak: 1013 hPa
Pregled: Light Rain
Oblaci: Partly Cloudy
Vidljivost: 10 km
2022/09/26 00:30 LYKV 260030Z VRB02KT 9999 -RA NSC 15/15 Q1013 NOSIG
LYNI - Niš, Srbija
Ažurirano: 26/09/2022 02:30
Vedro
Vedro
 Pravac vetra IJI
Vetar: IJI 4 km/h
Temperatura: 14°C
Tačka rose: 13°C
Vlažnost: 94%
Pritisak: 1015 hPa
Pregled: Vedro
Vidljivost: greater than 10 km
2022/09/26 00:30 LYNI 260030Z 11002KT CAVOK 14/13 Q1015 NOSIG
BKPR - Priština, Srbija
Ažurirano: 26/09/2022 03:00
Mostly Cloudy
Mostly Cloudy
 Pravac vetra varies
Vetar: varies 4 km/h
Temperatura: 12°C
Tačka rose: 10°C
Vlažnost: 88%
Pritisak: 1015 hPa
Oblaci: Mostly Cloudy
Vidljivost: 10 km
Cloud details: Mostly Cloudy 1585 m
2022/09/26 01:00 BKPR 260100Z VRB02KT 9999 BKN052 12/10 Q1015 NOSIG
 
LHPP - Pecs / Pogany, Hungary
Ažurirano: 26/09/2022 02:15
Vedro
Vedro
 Pravac vetra varies
Vetar: varies 2 km/h
Temperatura: 14°C
Tačka rose: 12°C
Vlažnost: 88%
Pritisak: 1010 hPa
Pregled: Vedro
Vidljivost: greater than 10 km
2022/09/26 00:15 LHPP 260015Z AUTO VRB01KT CAVOK 14/12 Q1010
LHUD - Szeged, Hungary
Ažurirano: 04/07/2019 01:45
NOT Current
Vedro
Vedro
 Pravac vetra S
Vetar: S 7 km/h
Temperatura: 18°C
Tačka rose: 13°C
Vlažnost: 73%
Pritisak: 1019 hPa
Pregled: Vedro
Vidljivost: greater than 10 km
2019/07/03 23:45 LHUD 032345Z 35004KT CAVOK 18/13 Q1019
LRTR - Timisoara, Romania
Ažurirano: 26/09/2022 02:30
Vedro
Vedro
 Pravac vetra I
Vetar: I 7 km/h
Temperatura: 14°C
Tačka rose: 13°C
Vlažnost: 94%
Pritisak: 1011 hPa
Pregled: Vedro
Vidljivost: greater than 10 km
2022/09/26 00:30 LRTR 260030Z 10004KT CAVOK 14/13 Q1011
 
LRCV - Craiova, Romania
Ažurirano: 26/09/2022 02:30
Vedro
Vedro
 Pravac vetra ISI
Vetar: ISI 6 km/h
Temperatura: 15°C
Tačka rose: 8°C
Vlažnost: 63%
Pritisak: 1013 hPa
Pregled: Vedro
Vidljivost: greater than 10 km
2022/09/26 00:30 LRCV 260030Z 06003KT CAVOK 15/08 Q1013
LBSF - Sofia, Bulgaria
Ažurirano: 26/09/2022 02:30
Partly Cloudy
Partly Cloudy
 Pravac vetra JI
Vetar: JI 6 km/h
Temperatura: 7°C
Tačka rose: 4°C
Vlažnost: 81%
Pritisak: 1016 hPa
Oblaci: Partly Cloudy
Vidljivost: 10 km
2022/09/26 00:30 LBSF 260030Z AUTO 13003KT 120V240 9999 NSC 07/04 Q1016 NOSIG
LWSK - Skoplje, Makedonija
Ažurirano: 26/09/2022 03:00
Few Clouds
Few Clouds
 Pravac vetra varies
Vetar: varies 2 km/h
Temperatura: 10°C
Tačka rose: 9°C
Vlažnost: 94%
Pritisak: 1016 hPa
Oblaci: Few Clouds
Vidljivost: 10 km
Cloud details: Few Clouds 2743 m
2022/09/26 01:00 LWSK 260100Z VRB01KT 9999 FEW090 10/09 Q1016 NOSIG
 
LYPG - Podgorica, Crna Gora
Ažurirano: 26/09/2022 02:30
Slaba kiša, Pretežno oblačno
Slaba kiša, Pretežno oblačno
 Pravac vetra varies
Vetar: varies 2 km/h
Temperatura: 15°C
Tačka rose: 15°C
Vlažnost: 100%
Pritisak: 1015 hPa
Pregled: Light Rain
Oblaci: Mostly Cloudy
Vidljivost: 8 km
Cloud details: Few Clouds 701 m
Partly Cloudy 1006 m
Mostly Cloudy 2134 m
2022/09/26 00:30 LYPG 260030Z VRB01KT 8000 -RA FEW023 SCT033 BKN070 15/15 Q1015 RERA NOSIG
LQSA - Sarajevo, Bosna i Hercegovina
Ažurirano: 26/09/2022 02:00
Mostly Cloudy
Mostly Cloudy
 Pravac vetra varies
Vetar: varies 4 km/h
Temperatura: 13°C
Tačka rose: 13°C
Vlažnost: 100%
Pritisak: 1012 hPa
Oblaci: Mostly Cloudy
Vidljivost: 10 km
Cloud details: Mostly Cloudy 1219 m
2022/09/26 00:00 LQSA 260000Z VRB02KT 9999 BKN040 13/13 Q1012
LDOS - Osijek, Hrvatksa
Ažurirano: 26/09/2022 02:30
Vedro
Vedro
 Pravac vetra I
Vetar: I 13 km/h
Temperatura: 13°C
Tačka rose: 12°C
Vlažnost: 94%
Pritisak: 1009 hPa
Pregled: Vedro
Vidljivost: greater than 10 km
2022/09/26 00:30 LDOS 260030Z 10007KT CAVOK 13/12 Q1009